Time;durP1;ratioP1;P1;durP2;ratioP2;P2;SDS_P1;SDS_P2;PMS_P1;PMS_P2;Temp;Humidity;BMP_temperature;BMP_pressure;BME280_temperature;BME280_humidity;BME280_pressure;Samples;Min_cycle;Max_cycle;Signal;HPM_P1;HPM_P2
2023/08/23 00:00:42;;;;;;;15.10;5.50;;;;;;;19.39;57.45;99302.09;79526;1295;3013656;-63
2023/08/23 00:03:08;;;;;;;9.60;5.40;;;;;;;19.42;57.31;99303.61;79423;1295;3011563;-65
2023/08/23 00:05:36;;;;;;;8.20;5.30;;;;;;;19.34;57.60;99303.70;78309;1295;3026185;-65
2023/08/23 00:08:03;;;;;;;12.60;4.90;;;;;;;19.33;57.72;99299.52;79673;1295;3013499;-64
2023/08/23 00:10:30;;;;;;;9.40;4.50;;;;;;;19.34;57.47;99299.41;79772;1292;3013336;-65
2023/08/23 00:12:58;;;;;;;6.20;3.90;;;;;;;19.31;57.86;99300.92;78550;1295;3028715;-63
2023/08/23 00:15:24;;;;;;;9.80;4.40;;;;;;;19.31;57.66;99307.34;79617;1295;3013475;-62
2023/08/23 00:17:51;;;;;;;8.00;4.10;;;;;;;19.36;57.96;99305.29;79584;1292;3011631;-64
2023/08/23 00:20:19;;;;;;;12.50;4.80;;;;;;;19.32;58.10;99305.26;78391;1295;3026241;-63
2023/08/23 00:22:45;;;;;;;12.60;5.80;;;;;;;19.30;58.24;99302.81;79558;1291;3012812;-65
2023/08/23 00:25:12;;;;;;;9.10;5.30;;;;;;;19.28;58.14;99307.98;79490;1295;3011657;-65
2023/08/23 00:27:40;;;;;;;6.20;3.70;;;;;;;19.31;58.18;99300.79;78363;1295;3027240;-64
2023/08/23 00:30:07;;;;;;;7.50;3.70;;;;;;;19.30;58.21;99300.52;79554;1298;3013769;-63
2023/08/23 00:32:34;;;;;;;11.20;3.60;;;;;;;19.29;58.22;99304.20;79702;1295;3011865;-62
2023/08/23 00:35:02;;;;;;;6.60;3.10;;;;;;;19.23;58.38;99311.11;78368;1291;3051292;-63
2023/08/23 00:37:29;;;;;;;4.00;2.60;;;;;;;19.20;58.54;99314.98;79590;1292;3015489;-64
2023/08/23 00:39:55;;;;;;;4.30;2.40;;;;;;;19.17;58.51;99315.54;79496;1292;3011470;-63
2023/08/23 00:42:24;;;;;;;4.00;2.30;;;;;;;19.15;58.34;99319.74;78449;1295;3049958;-61
2023/08/23 00:44:50;;;;;;;6.00;2.60;;;;;;;19.14;58.34;99323.30;79628;1298;3013002;-64
2023/08/23 00:47:17;;;;;;;4.70;2.60;;;;;;;19.15;58.31;99327.71;79622;1292;3013647;-62
2023/08/23 00:49:46;;;;;;;3.40;2.20;;;;;;;19.11;58.58;99323.20;78282;1293;3027993;-64
2023/08/23 00:52:13;;;;;;;3.40;2.00;;;;;;;19.09;58.68;99325.66;79496;1291;3013278;-64
2023/08/23 00:54:39;;;;;;;5.70;2.10;;;;;;;19.09;58.43;99328.32;79555;1291;3013234;-66
2023/08/23 00:57:07;;;;;;;4.00;2.30;;;;;;;19.04;58.76;99328.97;78430;1295;3049710;-63
2023/08/23 00:59:35;;;;;;;5.30;2.30;;;;;;;19.04;58.83;99333.76;79606;1298;3013500;-64
2023/08/23 01:02:02;;;;;;;4.30;2.00;;;;;;;19.07;58.32;99331.73;79422;1298;3013183;-63
2023/08/23 01:04:30;;;;;;;4.50;2.00;;;;;;;19.09;58.60;99336.11;78290;1297;3051214;-63
2023/08/23 01:07:43;;;;;;;6.00;1.90;;;;;;;19.10;58.81;99335.34;79657;1293;3013158;-65
2023/08/23 01:10:28;;;;;;;2.30;1.80;;;;;;;19.14;58.54;99333.16;78369;1295;3054074;-62
2023/08/23 01:13:02;;;;;;;2.60;1.90;;;;;;;19.11;58.90;99338.79;78322;1295;3050687;-61
2023/08/23 01:15:29;;;;;;;3.80;1.80;;;;;;;19.17;58.76;99332.15;79699;1292;3011603;-66
2023/08/23 01:17:57;;;;;;;3.50;2.20;;;;;;;19.19;59.22;99334.50;78398;1295;3051880;-65
2023/08/23 01:20:24;;;;;;;3.40;1.90;;;;;;;19.12;59.79;99334.09;79543;1293;3015061;-64
2023/08/23 01:23:13;;;;;;;4.30;2.20;;;;;;;19.09;59.97;99340.73;79521;1298;3011587;-64
2023/08/23 01:25:50;;;;;;;2.90;1.80;;;;;;;19.10;60.17;99334.95;78486;1295;3049376;-64
2023/08/23 01:28:20;;;;;;;4.90;2.80;;;;;;;19.11;60.40;99328.84;78396;1297;3054083;-62
2023/08/23 01:30:47;;;;;;;4.20;2.00;;;;;;;19.10;60.56;99329.65;79619;1295;3018713;-64
2023/08/23 01:33:19;;;;;;;5.40;2.60;;;;;;;19.09;60.84;99331.34;79630;1292;3011777;-63
2023/08/23 01:35:51;;;;;;;4.20;2.20;;;;;;;18.99;61.39;99329.64;78329;1295;3067542;-64
2023/08/23 01:38:19;;;;;;;6.40;2.60;;;;;;;18.95;61.76;99326.72;79603;1292;3011781;-64
2023/08/23 01:40:47;;;;;;;6.30;2.30;;;;;;;18.91;62.54;99326.90;78217;1292;3056073;-63
2023/08/23 01:43:14;;;;;;;3.70;2.40;;;;;;;18.90;62.17;99323.96;79526;1292;3013190;-64
2023/08/23 01:45:40;;;;;;;7.30;2.90;;;;;;;18.89;62.53;99325.31;79771;1292;3011597;-64
2023/08/23 01:48:08;;;;;;;3.60;2.10;;;;;;;18.86;62.83;99320.46;78353;1295;3026755;-65
2023/08/23 01:50:35;;;;;;;4.00;2.40;;;;;;;18.83;63.00;99319.86;79757;1295;3021057;-64
2023/08/23 01:53:03;;;;;;;8.20;2.60;;;;;;;18.87;62.65;99317.09;79715;1293;3011892;-67
2023/08/23 01:55:31;;;;;;;7.10;2.50;;;;;;;18.78;63.70;99320.31;78397;1296;3056946;-67
2023/08/23 01:57:58;;;;;;;4.60;2.60;;;;;;;18.77;63.78;99319.30;79536;1293;3012835;-66
2023/08/23 02:00:24;;;;;;;4.40;2.80;;;;;;;18.80;63.82;99319.92;79501;1293;3011592;-66
2023/08/23 02:02:56;;;;;;;7.00;2.60;;;;;;;18.76;64.31;99319.99;78394;1295;3052437;-63
2023/08/23 02:05:23;;;;;;;4.20;2.90;;;;;;;18.74;64.38;99315.74;79655;1295;3013002;-62
2023/08/23 02:07:49;;;;;;;4.70;2.90;;;;;;;18.75;64.71;99318.95;79614;1291;3011528;-65
2023/08/23 02:10:18;;;;;;;6.70;3.00;;;;;;;18.72;64.93;99316.79;78416;1298;3057130;-63
2023/08/23 02:12:44;;;;;;;7.40;3.20;;;;;;;18.71;65.17;99316.69;79663;1293;3020920;-63
2023/08/23 02:15:11;;;;;;;7.30;3.30;;;;;;;18.70;65.46;99315.80;79610;1292;3013161;-66
2023/08/23 02:17:39;;;;;;;6.50;3.50;;;;;;;18.69;65.49;99317.15;78271;1299;3028350;-65
2023/08/23 02:20:06;;;;;;;11.40;3.40;;;;;;;18.66;65.57;99318.52;79618;1298;3011684;-65
2023/08/23 02:22:33;;;;;;;5.90;3.50;;;;;;;18.70;65.56;99319.46;79601;1297;3013083;-63
2023/08/23 02:25:00;;;;;;;9.10;3.50;;;;;;;18.72;65.49;99323.42;78486;1295;3025967;-63
2023/08/23 02:27:27;;;;;;;8.60;3.30;;;;;;;18.70;65.69;99326.57;79601;1292;3018515;-61
2023/08/23 02:29:53;;;;;;;5.30;3.30;;;;;;;18.73;65.76;99320.75;79522;1294;3011204;-64
2023/08/23 02:32:21;;;;;;;7.20;3.80;;;;;;;18.72;66.06;99319.67;78319;1298;3026830;-64
2023/08/23 02:34:48;;;;;;;9.40;4.00;;;;;;;18.69;66.46;99322.20;79517;1296;3013444;-64
2023/08/23 02:37:15;;;;;;;10.70;4.30;;;;;;;18.65;66.45;99327.41;79545;1293;3011496;-62
2023/08/23 02:39:43;;;;;;;12.30;4.40;;;;;;;18.64;66.60;99328.04;78392;1292;3028541;-65
2023/08/23 02:42:10;;;;;;;11.70;3.70;;;;;;;18.68;66.68;99327.29;79664;1293;3014522;-63
2023/08/23 02:44:36;;;;;;;12.80;4.50;;;;;;;18.67;67.21;99327.98;79609;1299;3012639;-62
2023/08/23 02:47:04;;;;;;;11.30;4.30;;;;;;;18.66;67.22;99328.03;78496;1295;3052003;-63
2023/08/23 02:49:31;;;;;;;8.70;4.20;;;;;;;18.62;67.54;99329.52;79641;1295;3013458;-63
2023/08/23 02:51:58;;;;;;;6.90;4.20;;;;;;;18.62;67.28;99331.48;79585;1296;3013253;-63
2023/08/23 02:54:25;;;;;;;9.10;4.50;;;;;;;18.62;67.26;99333.01;78307;1306;3025368;-66
2023/08/23 02:56:52;;;;;;;9.60;4.20;;;;;;;18.57;67.38;99334.61;79617;1295;3013116;-64
2023/08/23 02:59:18;;;;;;;7.70;4.50;;;;;;;18.56;67.85;99335.55;79622;1293;3012942;-64
2023/08/23 03:01:46;;;;;;;10.70;4.70;;;;;;;18.57;67.66;99335.61;78310;1295;3026272;-63
2023/08/23 03:04:13;;;;;;;10.90;4.40;;;;;;;18.55;68.09;99333.72;79640;1295;3019206;-62
2023/08/23 03:06:40;;;;;;;11.30;4.70;;;;;;;18.53;68.38;99336.95;79523;1293;3011928;-66
2023/08/23 03:09:08;;;;;;;10.30;4.60;;;;;;;18.53;68.19;99339.38;78510;1293;3026358;-62
2023/08/23 03:11:35;;;;;;;13.40;4.80;;;;;;;18.54;68.28;99336.79;79650;1292;3012771;-63
2023/08/23 03:14:01;;;;;;;6.50;4.30;;;;;;;18.56;68.08;99340.05;79610;1292;3011550;-64
2023/08/23 03:16:29;;;;;;;11.30;4.30;;;;;;;18.52;68.23;99340.92;78290;1297;3025990;-62
2023/08/23 03:18:56;;;;;;;9.50;4.20;;;;;;;18.48;68.51;99336.89;79580;1295;3013219;-62
2023/08/23 03:21:22;;;;;;;7.60;4.30;;;;;;;18.51;68.31;99337.63;79556;1298;3011535;-64
2023/08/23 03:23:50;;;;;;;11.60;3.50;;;;;;;18.46;68.24;99341.33;78403;1295;3026432;-64
2023/08/23 03:26:17;;;;;;;6.90;3.30;;;;;;;19.00;66.88;99339.63;79554;1298;3020370;-64
2023/08/23 03:28:43;;;;;;;5.90;3.20;;;;;;;19.48;64.94;99332.48;79480;1298;3012139;-62
2023/08/23 03:31:11;;;;;;;4.00;2.80;;;;;;;19.42;64.25;99337.13;78393;1295;3025877;-63
2023/08/23 03:33:38;;;;;;;7.90;3.50;;;;;;;19.34;64.61;99339.20;79666;1298;3018883;-63
2023/08/23 03:36:06;;;;;;;7.50;3.50;;;;;;;19.23;64.45;99336.04;79494;1298;3013272;-64
2023/08/23 03:38:34;;;;;;;8.30;3.20;;;;;;;19.05;64.88;99337.60;78352;1298;3054983;-62
2023/08/23 03:41:01;;;;;;;8.90;4.00;;;;;;;18.92;65.36;99337.81;79581;1292;3013262;-61
2023/08/23 03:43:29;;;;;;;11.80;3.70;;;;;;;18.81;65.84;99340.42;79628;1292;3011471;-65
2023/08/23 03:45:57;;;;;;;8.60;3.70;;;;;;;18.66;66.13;99338.57;78372;1298;3052074;-63
2023/08/23 03:48:24;;;;;;;6.10;3.80;;;;;;;18.60;66.11;99334.67;79663;1295;3013765;-61
2023/08/23 03:50:50;;;;;;;7.60;3.50;;;;;;;18.57;66.08;99335.98;79497;1299;3011722;-63
2023/08/23 03:53:18;;;;;;;6.40;3.10;;;;;;;18.58;66.07;99335.34;78392;1298;3026175;-63
2023/08/23 03:55:51;;;;;;;6.00;2.80;;;;;;;18.54;66.20;99338.23;79545;1295;3013160;-63
2023/08/23 03:58:20;;;;;;;5.60;3.10;;;;;;;18.46;66.53;99340.03;78308;1298;3049835;-62
2023/08/23 04:00:51;;;;;;;9.70;3.90;;;;;;;18.45;66.78;99342.14;79598;1297;3013071;-62
2023/08/23 04:03:19;;;;;;;10.70;5.60;;;;;;;18.49;66.72;99342.23;78426;1298;3069285;-64
2023/08/23 04:05:46;;;;;;;9.90;5.70;;;;;;;18.49;67.05;99338.73;79607;1298;3013703;-64
2023/08/23 04:08:13;;;;;;;14.50;7.40;;;;;;;18.54;66.76;99340.41;79450;1297;3012812;-62
2023/08/23 04:10:48;;;;;;;8.80;5.00;;;;;;;18.49;67.34;99351.30;78234;1297;3026644;-62
2023/08/23 04:13:17;;;;;;;9.50;5.60;;;;;;;18.53;67.09;99341.90;78917;1298;3011946;-61
2023/08/23 04:15:44;;;;;;;8.10;4.50;;;;;;;18.54;67.20;99349.09;79510;1304;3013712;-63
2023/08/23 04:18:10;;;;;;;6.00;4.10;;;;;;;18.56;67.03;99350.63;79471;1298;3011529;-63
2023/08/23 04:20:40;;;;;;;7.80;3.80;;;;;;;18.58;67.20;99350.59;78371;1298;3069171;-62
2023/08/23 04:23:07;;;;;;;8.10;3.00;;;;;;;18.63;66.95;99353.70;79547;1292;3013266;-62
2023/08/23 04:25:34;;;;;;;11.60;4.20;;;;;;;18.65;66.83;99355.67;79512;1297;3013791;-62
2023/08/23 04:28:02;;;;;;;11.60;5.60;;;;;;;18.60;67.04;99352.92;78342;1292;3052910;-61
2023/08/23 04:30:29;;;;;;;9.10;5.60;;;;;;;18.55;67.47;99356.06;79515;1298;3021142;-63
2023/08/23 04:32:57;;;;;;;13.70;4.60;;;;;;;18.55;67.42;99365.44;79428;1297;3011569;-64
2023/08/23 04:35:24;;;;;;;6.00;3.30;;;;;;;18.59;67.39;99367.20;78555;1298;3069627;-63
2023/08/23 04:37:52;;;;;;;6.90;4.00;;;;;;;18.64;67.36;99369.61;79450;1293;3013185;-64
2023/08/23 04:40:19;;;;;;;9.30;4.40;;;;;;;18.77;67.01;99366.17;79537;1292;3011545;-64
2023/08/23 04:42:47;;;;;;;10.70;4.50;;;;;;;18.81;66.92;99365.81;78296;1296;3053119;-62
2023/08/23 04:45:14;;;;;;;12.40;6.60;;;;;;;18.81;66.86;99366.17;79599;1304;3012968;-63
2023/08/23 04:47:42;;;;;;;13.50;4.50;;;;;;;18.72;66.98;99365.48;79652;1293;3013115;-65
2023/08/23 04:50:10;;;;;;;18.50;9.30;;;;;;;18.74;66.92;99365.91;78429;1293;3069857;-61
2023/08/23 04:52:36;;;;;;;19.00;10.00;;;;;;;18.81;66.99;99365.39;79519;1293;3014723;-62
2023/08/23 04:55:04;;;;;;;15.30;7.50;;;;;;;18.72;67.10;99366.54;79500;1293;3011528;-63
2023/08/23 04:57:32;;;;;;;12.00;7.50;;;;;;;18.80;66.66;99366.94;78367;1292;3052208;-67
2023/08/23 04:59:59;;;;;;;14.40;7.70;;;;;;;18.82;66.45;99373.29;79584;1298;3013103;-62
2023/08/23 05:02:26;;;;;;;9.00;5.40;;;;;;;18.84;66.75;99370.52;79628;1292;3011448;-61
2023/08/23 05:04:55;;;;;;;15.80;6.30;;;;;;;18.81;66.78;99373.08;78329;1298;3068966;-61
2023/08/23 05:07:22;;;;;;;14.70;8.50;;;;;;;18.84;66.69;99369.63;79572;1295;3013126;-60
2023/08/23 05:09:48;;;;;;;13.20;6.10;;;;;;;18.88;66.62;99368.14;79512;1298;3011856;-62
2023/08/23 05:12:17;;;;;;;14.10;5.20;;;;;;;18.96;66.76;99363.65;78375;1295;3028517;-63
2023/08/23 05:14:45;;;;;;;9.40;5.00;;;;;;;19.06;66.39;99358.48;79558;1292;3013018;-61
2023/08/23 05:17:12;;;;;;;12.70;4.20;;;;;;;19.16;65.93;99361.04;79604;1296;3011938;-62
2023/08/23 05:19:40;;;;;;;7.20;4.10;;;;;;;19.18;65.59;99358.55;78337;1292;3068581;-63
2023/08/23 05:22:06;;;;;;;5.20;2.90;;;;;;;19.18;65.93;99362.28;79584;1293;3013464;-65
2023/08/23 05:24:33;;;;;;;12.30;3.10;;;;;;;19.13;66.03;99364.73;79507;1293;3011428;-67
2023/08/23 05:27:01;;;;;;;8.80;3.00;;;;;;;19.26;65.78;99362.00;78247;1298;3028564;-65
2023/08/23 05:29:27;;;;;;;5.40;3.10;;;;;;;19.37;65.45;99368.20;79619;1298;3011801;-64
2023/08/23 05:31:54;;;;;;;5.60;2.90;;;;;;;19.45;64.61;99375.95;79833;1295;3011574;-66
2023/08/23 05:34:22;;;;;;;4.90;2.80;;;;;;;19.45;64.56;99377.02;78403;1306;3026359;-64
2023/08/23 05:36:49;;;;;;;6.30;2.80;;;;;;;19.49;64.77;99375.42;79828;1292;3020431;-66
2023/08/23 05:39:15;;;;;;;8.40;2.90;;;;;;;19.54;64.72;99378.74;79716;1295;3012917;-65
2023/08/23 05:41:43;;;;;;;14.00;2.90;;;;;;;19.58;64.71;99379.41;78357;1292;3025785;-65
2023/08/23 05:44:09;;;;;;;7.10;2.70;;;;;;;19.75;64.41;99376.34;79691;1295;3020521;-65
2023/08/23 05:46:36;;;;;;;7.20;3.00;;;;;;;19.89;63.17;99381.31;79539;1293;3011866;-72
2023/08/23 05:49:04;;;;;;;9.20;2.90;;;;;;;19.91;62.43;99382.55;78561;1295;3026645;-65
2023/08/23 05:51:30;;;;;;;5.80;2.50;;;;;;;19.96;62.35;99382.77;79626;1295;3013561;-66
2023/08/23 05:53:57;;;;;;;4.50;2.60;;;;;;;20.14;62.11;99379.05;79600;1295;3011625;-63
2023/08/23 05:56:25;;;;;;;7.40;2.40;;;;;;;20.31;61.91;99374.08;78430;1295;3028919;-62
2023/08/23 05:58:51;;;;;;;8.80;3.00;;;;;;;20.46;61.55;99373.30;79690;1296;3012946;-59
2023/08/23 06:01:18;;;;;;;6.50;2.60;;;;;;;20.56;60.75;99370.63;79544;1295;3011618;-63
2023/08/23 06:03:49;;;;;;;5.60;2.60;;;;;;;20.60;60.30;99383.38;78392;1292;3068730;-63
2023/08/23 06:06:15;;;;;;;5.40;2.20;;;;;;;20.51;58.55;99378.42;79984;1292;3013090;-64
2023/08/23 06:08:42;;;;;;;7.20;1.80;;;;;;;20.48;59.17;99379.51;79950;1295;3011813;-63
2023/08/23 06:11:10;;;;;;;5.70;2.10;;;;;;;20.49;59.46;99378.77;78870;1295;3052706;-70
2023/08/23 06:13:37;;;;;;;3.90;2.10;;;;;;;20.51;58.68;99380.95;79795;1297;3011649;-65
2023/08/23 06:16:04;;;;;;;4.30;1.90;;;;;;;20.53;58.38;99382.61;79673;1305;3012038;-68
2023/08/23 06:18:32;;;;;;;3.80;1.70;;;;;;;20.46;58.42;99384.33;78403;1295;3025927;-65
2023/08/23 06:20:58;;;;;;;4.80;1.70;;;;;;;20.50;58.50;99384.59;79725;1293;3018670;-68
2023/08/23 06:23:25;;;;;;;3.80;1.40;;;;;;;20.58;57.61;99380.85;79620;1292;3013369;-66
2023/08/23 06:25:59;;;;;;;3.90;2.00;;;;;;;20.69;57.30;99383.36;78457;1303;3025853;-69
2023/08/23 06:28:28;;;;;;;4.50;1.80;;;;;;;20.73;56.50;99378.34;79144;1298;3011923;-69
2023/08/23 06:30:56;;;;;;;4.40;2.10;;;;;;;20.63;57.02;99383.02;79650;1296;3013607;-71
2023/08/23 06:33:22;;;;;;;5.20;1.90;;;;;;;20.74;57.38;99379.80;79698;1294;3011909;-68
2023/08/23 06:35:50;;;;;;;6.60;1.90;;;;;;;20.98;56.99;99372.83;78501;1297;3068106;-70
2023/08/23 06:38:16;;;;;;;3.30;1.50;;;;;;;21.04;55.42;99382.21;79705;1298;3013482;-67
2023/08/23 06:40:43;;;;;;;3.00;1.40;;;;;;;21.09;55.51;99385.36;79762;1292;3011944;-67
2023/08/23 06:43:17;;;;;;;4.60;1.80;;;;;;;21.19;55.35;99386.00;78521;1292;3025855;-73
2023/08/23 06:45:43;;;;;;;2.70;1.70;;;;;;;21.18;54.13;99390.33;79785;1292;3011589;-72
2023/08/23 06:48:12;;;;;;;4.80;1.80;;;;;;;21.26;54.34;99387.48;78474;1295;3052137;-65
2023/08/23 06:50:39;;;;;;;3.20;1.80;;;;;;;21.28;54.13;99394.63;79889;1295;3013656;-68
2023/08/23 06:53:05;;;;;;;5.20;1.70;;;;;;;21.24;53.06;99405.50;79749;1295;3011939;-67
2023/08/23 06:55:38;;;;;;;3.50;1.90;;;;;;;21.18;52.99;99394.16;78499;1295;3056340;-69
2023/08/23 06:58:05;;;;;;;7.30;1.90;;;;;;;21.26;53.54;99395.50;79699;1292;3011471;-65
2023/08/23 07:00:34;;;;;;;1.80;1.40;;;;;;;21.27;52.51;99398.30;78568;1295;3052222;-71
2023/08/23 07:03:01;;;;;;;6.20;1.80;;;;;;;21.29;52.94;99401.77;79824;1295;3013798;-70
2023/08/23 07:05:28;;;;;;;4.50;1.80;;;;;;;21.34;53.63;99401.65;79958;1293;3013558;-66
2023/08/23 07:07:56;;;;;;;3.90;1.80;;;;;;;21.43;52.82;99412.98;78419;1297;3068880;-70
2023/08/23 07:10:23;;;;;;;4.70;2.00;;;;;;;21.54;52.87;99403.48;79818;1292;3013118;-69
2023/08/23 07:12:49;;;;;;;6.30;1.50;;;;;;;21.65;52.77;99401.35;79717;1292;3013582;-65
2023/08/23 07:15:17;;;;;;;3.80;1.60;;;;;;;21.49;52.76;99412.13;78553;1295;3025835;-67
2023/08/23 07:17:44;;;;;;;3.50;1.50;;;;;;;21.50;52.72;99414.20;79939;1292;3013818;-65
2023/08/23 07:20:13;;;;;;;3.10;1.80;;;;;;;21.58;53.04;99411.17;79798;1295;3011949;-66
2023/08/23 07:22:42;;;;;;;5.20;1.90;;;;;;;21.68;52.91;99413.01;78431;1295;3068520;-67
2023/08/23 07:25:08;;;;;;;5.70;2.10;;;;;;;21.65;53.34;99423.50;79783;1291;3014246;-63
2023/08/23 07:27:36;;;;;;;3.50;2.00;;;;;;;21.64;53.33;99427.48;79874;1292;3011858;-66
2023/08/23 07:30:05;;;;;;;4.80;2.10;;;;;;;21.49;53.86;99420.93;78470;1293;3053438;-71
2023/08/23 07:32:32;;;;;;;5.30;2.40;;;;;;;21.45;54.90;99415.77;80023;1295;3013174;-66
2023/08/23 07:35:01;;;;;;;4.40;2.20;;;;;;;21.55;54.42;99418.13;79765;1295;3014321;-68
2023/08/23 07:37:30;;;;;;;5.30;2.10;;;;;;;21.60;54.51;99412.23;78556;1295;3067733;-62
2023/08/23 07:39:56;;;;;;;3.90;2.40;;;;;;;21.80;54.36;99411.53;80107;1292;3012976;-61
2023/08/23 07:42:24;;;;;;;4.00;2.30;;;;;;;21.89;53.95;99414.69;82192;1291;3011361;-62
2023/08/23 07:44:52;;;;;;;9.60;2.50;;;;;;;21.82;53.90;99409.21;80940;1292;3052729;-61
2023/08/23 07:47:18;;;;;;;7.20;2.70;;;;;;;21.96;54.02;99404.59;82213;1295;3018226;-65
2023/08/23 07:49:45;;;;;;;6.40;3.00;;;;;;;21.91;53.32;99417.09;82205;1292;3011228;-63
2023/08/23 07:52:13;;;;;;;8.60;3.20;;;;;;;21.97;53.95;99395.95;80964;1292;3026258;-64
2023/08/23 07:54:39;;;;;;;6.30;3.20;;;;;;;22.04;53.74;99399.42;81723;1295;3013537;-62
2023/08/23 07:57:06;;;;;;;5.40;2.70;;;;;;;22.03;53.00;99397.05;79664;1295;3011858;-64
2023/08/23 07:59:33;;;;;;;3.20;2.20;;;;;;;21.89;52.24;99403.45;78384;1295;3028406;-60
2023/08/23 08:02:00;;;;;;;3.90;2.20;;;;;;;21.72;52.68;99401.30;79584;1292;3013093;-63
2023/08/23 08:04:29;;;;;;;4.60;2.30;;;;;;;22.04;51.97;99394.61;79723;1295;3011550;-64
2023/08/23 08:06:57;;;;;;;11.10;2.70;;;;;;;22.32;51.40;99396.74;78384;1295;3068868;-62
2023/08/23 08:09:24;;;;;;;8.10;2.30;;;;;;;22.40;50.27;99401.37;79705;1292;3013280;-64
2023/08/23 08:11:51;;;;;;;5.10;2.20;;;;;;;22.41;50.01;99399.20;79570;1295;3013031;-62
2023/08/23 08:14:19;;;;;;;3.20;1.80;;;;;;;22.56;49.88;99393.59;78347;1295;3028870;-64
2023/08/23 08:16:45;;;;;;;10.00;1.90;;;;;;;22.69;49.96;99391.19;79617;1295;3013229;-62
2023/08/23 08:19:12;;;;;;;7.90;2.70;;;;;;;22.70;50.12;99391.91;79630;1295;3011799;-62
2023/08/23 08:21:40;;;;;;;4.70;2.30;;;;;;;22.56;49.51;99403.44;78411;1297;3028421;-62
2023/08/23 08:24:07;;;;;;;4.30;2.10;;;;;;;22.54;49.31;99389.70;79588;1292;3014355;-63
2023/08/23 08:26:34;;;;;;;3.60;2.10;;;;;;;22.54;49.13;99387.40;79584;1292;3012130;-60
2023/08/23 08:29:02;;;;;;;7.00;2.50;;;;;;;22.45;49.63;99393.73;78288;1293;3052904;-62
2023/08/23 08:31:29;;;;;;;5.80;1.90;;;;;;;22.66;49.60;99384.91;79678;1299;3013103;-60
2023/08/23 08:33:58;;;;;;;5.30;2.70;;;;;;;22.80;49.50;99394.39;79595;1296;3011668;-61
2023/08/23 08:36:25;;;;;;;9.00;3.20;;;;;;;22.80;49.64;99395.58;78502;1292;3069150;-61
2023/08/23 08:38:52;;;;;;;6.70;2.30;;;;;;;22.74;49.65;99394.75;79614;1292;3018911;-61
2023/08/23 08:41:19;;;;;;;7.60;3.40;;;;;;;22.83;49.74;99390.03;79589;1292;3011600;-62
2023/08/23 08:43:47;;;;;;;4.80;2.20;;;;;;;22.91;49.29;99395.76;78439;1295;3025775;-62
2023/08/23 08:46:14;;;;;;;7.50;2.90;;;;;;;22.99;48.72;99386.75;79631;1304;3013381;-61
2023/08/23 08:48:41;;;;;;;4.50;2.50;;;;;;;22.92;48.58;99390.72;79529;1295;3013531;-63
2023/08/23 08:51:10;;;;;;;4.40;2.60;;;;;;;22.92;48.66;99392.86;78341;1292;3028494;-62
2023/08/23 08:53:37;;;;;;;4.60;2.50;;;;;;;22.97;49.13;99382.36;79756;1293;3013932;-61
2023/08/23 08:56:03;;;;;;;6.20;3.10;;;;;;;23.03;48.70;99382.06;79561;1292;3011556;-61
2023/08/23 08:58:31;;;;;;;5.80;3.20;;;;;;;23.18;48.63;99383.70;78382;1292;3053757;-64
2023/08/23 09:00:58;;;;;;;9.40;3.40;;;;;;;23.18;48.16;99385.73;79767;1294;3018746;-62
2023/08/23 09:03:26;;;;;;;4.70;2.20;;;;;;;23.32;47.99;99384.09;79589;1293;3011895;-62
2023/08/23 09:05:54;;;;;;;3.40;2.00;;;;;;;23.11;46.67;99398.42;78467;1295;3026164;-62
2023/08/23 09:08:20;;;;;;;3.00;1.80;;;;;;;23.08;47.23;99398.29;79506;1292;3018760;-60
2023/08/23 09:10:47;;;;;;;5.30;2.40;;;;;;;23.20;46.80;99381.66;79524;1296;3011628;-64
2023/08/23 09:13:15;;;;;;;8.50;3.50;;;;;;;23.41;46.11;99379.48;78595;1298;3028784;-61
2023/08/23 09:15:41;;;;;;;5.00;2.90;;;;;;;23.44;46.60;99382.02;79663;1298;3012988;-64
2023/08/23 09:18:08;;;;;;;4.50;2.40;;;;;;;23.42;46.55;99381.48;79552;1298;3013693;-61
2023/08/23 09:20:36;;;;;;;3.40;2.10;;;;;;;23.38;46.14;99379.66;78573;1295;3028826;-61
2023/08/23 09:23:03;;;;;;;3.70;2.20;;;;;;;23.61;46.15;99374.46;79744;1291;3014141;-63
2023/08/23 09:25:30;;;;;;;8.90;4.60;;;;;;;23.90;45.74;99374.17;79661;1291;3013281;-67
2023/08/23 09:27:58;;;;;;;9.50;3.60;;;;;;;23.65;45.68;99381.13;78343;1292;3052191;-61
2023/08/23 09:30:25;;;;;;;7.70;3.10;;;;;;;23.69;45.13;99376.54;79879;1295;3012980;-62
2023/08/23 09:32:51;;;;;;;5.60;3.00;;;;;;;23.96;45.06;99365.92;79510;1295;3012993;-62
2023/08/23 09:35:19;;;;;;;5.20;2.70;;;;;;;24.16;45.10;99363.02;78281;1297;3026613;-62
2023/08/23 09:37:47;;;;;;;4.70;2.60;;;;;;;24.34;44.78;99367.39;79791;1298;3011598;-61
2023/08/23 09:40:21;;;;;;;5.10;2.10;;;;;;;24.28;44.46;99365.34;80249;1291;3011658;-63
2023/08/23 09:42:50;;;;;;;3.70;2.00;;;;;;;24.37;44.56;99369.89;80940;1292;3053331;-63
2023/08/23 09:45:23;;;;;;;4.80;1.90;;;;;;;24.29;44.62;99370.84;82192;1291;3013240;-61
2023/08/23 09:47:59;;;;;;;5.20;2.20;;;;;;;24.05;44.84;99364.85;80946;1291;3051101;-64
2023/08/23 09:50:26;;;;;;;6.10;3.80;;;;;;;23.85;45.57;99386.38;80958;1291;3068853;-61
2023/08/23 09:53:01;;;;;;;8.20;2.80;;;;;;;24.04;45.09;99374.44;81356;1291;3018652;-63
2023/08/23 09:55:30;;;;;;;4.70;2.60;;;;;;;24.12;44.15;99373.91;78363;1295;3050715;-61
2023/08/23 09:57:56;;;;;;;6.00;2.90;;;;;;;24.24;43.66;99366.15;79608;1292;3013427;-65
2023/08/23 10:00:23;;;;;;;7.30;3.00;;;;;;;24.52;43.08;99359.60;79546;1293;3011713;-64
2023/08/23 10:02:52;;;;;;;6.40;3.10;;;;;;;24.62;42.53;99363.65;78355;1295;3052535;-63
2023/08/23 10:05:19;;;;;;;8.60;3.00;;;;;;;24.60;42.86;99367.73;79694;1292;3012597;-62
2023/08/23 10:07:45;;;;;;;4.00;2.80;;;;;;;24.66;43.03;99363.48;79638;1292;3011663;-63
2023/08/23 10:10:14;;;;;;;3.80;2.50;;;;;;;24.44;42.94;99376.38;78394;1295;3048964;-62
2023/08/23 10:12:43;;;;;;;5.80;2.20;;;;;;;24.16;42.73;99383.83;79643;1292;3013905;-63
2023/08/23 10:15:13;;;;;;;3.20;1.80;;;;;;;24.13;42.70;99381.77;79077;1295;3011846;-62
2023/08/23 10:17:40;;;;;;;4.00;2.30;;;;;;;24.32;42.21;99378.52;79623;1292;3013143;-62
2023/08/23 10:20:10;;;;;;;5.00;2.90;;;;;;;24.76;41.53;99373.20;79582;1297;3011617;-62
2023/08/23 10:22:39;;;;;;;3.10;2.30;;;;;;;24.99;41.27;99369.37;78477;1292;3051363;-63
2023/08/23 10:25:19;;;;;;;5.30;2.30;;;;;;;25.11;40.82;99367.69;79701;1291;3011510;-61
2023/08/23 10:27:49;;;;;;;3.90;1.80;;;;;;;25.14;40.14;99375.61;78421;1292;3050016;-62
2023/08/23 10:30:25;;;;;;;4.50;2.00;;;;;;;25.03;39.90;99371.94;79665;1292;3012908;-67
2023/08/23 10:32:54;;;;;;;3.50;2.00;;;;;;;25.14;40.16;99358.77;78548;1292;3050331;-62
2023/08/23 10:35:27;;;;;;;2.80;1.80;;;;;;;25.39;40.22;99355.63;79607;1298;3015864;-65
2023/08/23 10:37:56;;;;;;;3.60;1.70;;;;;;;25.58;39.61;99360.27;78408;1295;3068612;-63
2023/08/23 10:40:26;;;;;;;5.10;2.30;;;;;;;25.69;38.99;99363.88;79795;1295;3016236;-65
2023/08/23 10:42:54;;;;;;;6.40;2.80;;;;;;;25.44;38.82;99355.97;78546;1295;3050445;-64
2023/08/23 10:45:21;;;;;;;9.10;2.60;;;;;;;25.55;38.76;99355.40;79806;1292;3018483;-63
2023/08/23 10:47:51;;;;;;;3.60;1.70;;;;;;;25.65;38.85;99358.72;79638;1297;3011888;-62
2023/08/23 10:50:19;;;;;;;2.90;1.70;;;;;;;25.38;39.25;99356.29;78819;1295;3052537;-65
2023/08/23 10:52:49;;;;;;;8.90;1.90;;;;;;;25.34;39.46;99345.19;77679;1292;3208686;-63
2023/08/23 10:55:17;;;;;;;6.10;2.40;;;;;;;25.48;39.17;99350.21;78337;1295;3056423;-64
2023/08/23 10:57:44;;;;;;;5.80;1.80;;;;;;;25.44;38.02;99349.01;79529;1292;3013609;-65
2023/08/23 11:00:12;;;;;;;5.20;2.50;;;;;;;25.35;38.41;99347.67;79746;1295;3011637;-65
2023/08/23 11:02:39;;;;;;;4.00;2.20;;;;;;;25.53;38.62;99347.27;78403;1295;3051986;-65
2023/08/23 11:05:07;;;;;;;4.70;1.70;;;;;;;25.49;38.36;99349.61;79578;1297;3013129;-64
2023/08/23 11:07:34;;;;;;;4.20;1.50;;;;;;;25.47;38.74;99351.48;79556;1295;3011510;-62
2023/08/23 11:10:03;;;;;;;4.60;1.50;;;;;;;25.54;38.58;99336.56;78367;1294;3056749;-63
2023/08/23 11:12:30;;;;;;;8.40;2.60;;;;;;;25.47;38.94;99340.89;79515;1292;3013949;-63
2023/08/23 11:14:57;;;;;;;3.70;2.00;;;;;;;25.76;38.93;99328.14;79588;1292;3011923;-65
2023/08/23 11:17:25;;;;;;;4.00;1.60;;;;;;;26.09;38.58;99333.44;78633;1297;3053591;-64
2023/08/23 11:19:52;;;;;;;4.70;1.70;;;;;;;26.26;38.09;99334.78;79785;1292;3019092;-66